createdAt,value
2019-05-26T00:00:55.307Z,16.20
2019-05-26T00:03:24.082Z,15.60
2019-05-26T00:05:52.844Z,15.97
2019-05-26T00:08:21.623Z,16.43
2019-05-26T00:10:50.338Z,16.20
2019-05-26T00:13:19.049Z,15.67
2019-05-26T00:15:47.743Z,15.83
2019-05-26T00:18:16.336Z,16.77
2019-05-26T00:20:44.950Z,16.63
2019-05-26T00:23:13.633Z,16.00
2019-05-26T00:25:42.297Z,17.40
2019-05-26T00:28:11.020Z,15.80
2019-05-26T00:30:39.699Z,17.47
2019-05-26T00:33:08.446Z,17.33
2019-05-26T00:35:37.092Z,15.77
2019-05-26T00:38:05.726Z,16.60
2019-05-26T00:40:34.420Z,16.50
2019-05-26T00:43:03.058Z,17.13
2019-05-26T00:45:31.767Z,16.87
2019-05-26T00:48:00.380Z,17.03
2019-05-26T00:50:29.086Z,16.50
2019-05-26T00:52:57.778Z,16.10
2019-05-26T00:55:26.477Z,16.67
2019-05-26T00:57:55.152Z,16.40
2019-05-26T01:00:43.295Z,16.37
2019-05-26T01:03:12.637Z,17.27
2019-05-26T01:05:41.358Z,16.87
2019-05-26T01:08:10.231Z,17.93
2019-05-26T01:10:38.874Z,16.63
2019-05-26T01:13:08.169Z,17.10
2019-05-26T01:15:36.861Z,16.73
2019-05-26T01:18:06.144Z,16.43
2019-05-26T01:20:34.907Z,16.20
2019-05-26T01:23:03.613Z,17.00
2019-05-26T01:25:32.267Z,16.90
2019-05-26T01:28:01.003Z,17.23
2019-05-26T01:30:37.225Z,16.30
2019-05-26T01:33:06.704Z,16.70
2019-05-26T01:35:38.495Z,17.47
2019-05-26T01:38:22.373Z,17.70
2019-05-26T01:40:43.190Z,18.27
2019-05-26T01:43:12.036Z,18.20
2019-05-26T01:45:40.831Z,16.67
2019-05-26T01:48:09.461Z,18.03
2019-05-26T01:50:38.070Z,18.13
2019-05-26T01:53:06.807Z,18.10
2019-05-26T01:55:35.546Z,18.23
2019-05-26T01:58:04.193Z,17.53
2019-05-26T02:00:32.862Z,17.67
2019-05-26T02:03:01.527Z,17.53
2019-05-26T02:05:30.200Z,17.20
2019-05-26T02:07:58.853Z,17.80
2019-05-26T02:10:27.460Z,17.53
2019-05-26T02:12:56.070Z,17.23
2019-05-26T02:15:25.310Z,19.53
2019-05-26T02:17:53.910Z,17.93
2019-05-26T02:20:22.639Z,16.83
2019-05-26T02:22:51.389Z,17.13
2019-05-26T02:25:21.488Z,17.97
2019-05-26T02:27:50.199Z,17.73
2019-05-26T02:30:20.481Z,18.87
2019-05-26T02:32:49.242Z,18.17
2019-05-26T02:35:18.137Z,17.87
2019-05-26T02:37:46.938Z,17.10
2019-05-26T02:40:16.350Z,19.17
2019-05-26T02:42:45.020Z,17.40
2019-05-26T02:45:18.237Z,18.23
2019-05-26T02:47:47.057Z,17.63
2019-05-26T02:50:17.603Z,18.47
2019-05-26T02:52:46.302Z,18.73
2019-05-26T02:55:15.861Z,17.53
2019-05-26T02:57:44.547Z,17.60
2019-05-26T03:00:14.564Z,18.17
2019-05-26T03:02:43.413Z,17.47
2019-05-26T03:05:12.690Z,18.00
2019-05-26T03:07:43.755Z,17.13
2019-05-26T03:10:14.323Z,16.63
2019-05-26T03:12:43.567Z,16.53
2019-05-26T03:15:13.854Z,17.20
2019-05-26T03:17:42.777Z,16.37
2019-05-26T03:20:14.486Z,16.57
2019-05-26T03:22:43.391Z,18.67
2019-05-26T03:25:13.136Z,17.93
2019-05-26T03:27:41.825Z,17.83
2019-05-26T03:30:10.941Z,18.40
2019-05-26T03:32:40.073Z,19.43
2019-05-26T03:35:10.173Z,17.53
2019-05-26T03:37:38.855Z,18.27
2019-05-26T03:40:10.782Z,18.97
2019-05-26T03:42:39.437Z,17.43
2019-05-26T03:45:10.006Z,18.10
2019-05-26T03:47:38.671Z,19.10
2019-05-26T03:50:10.802Z,17.90
2019-05-26T03:52:39.437Z,18.17
2019-05-26T03:55:08.146Z,18.37
2019-05-26T03:57:36.818Z,18.20
2019-05-26T04:00:09.123Z,18.17
2019-05-26T04:02:37.737Z,18.40
2019-05-26T04:05:06.989Z,18.50
2019-05-26T04:07:35.671Z,18.20
2019-05-26T04:10:08.532Z,18.87
2019-05-26T04:12:37.218Z,18.10
2019-05-26T04:15:07.409Z,18.33
2019-05-26T04:17:36.092Z,18.60
2019-05-26T04:20:06.886Z,17.53
2019-05-26T04:22:35.647Z,19.00
2019-05-26T04:25:05.766Z,18.00
2019-05-26T04:27:34.373Z,18.47
2019-05-26T04:30:03.325Z,18.13
2019-05-26T04:32:32.095Z,18.13
2019-05-26T04:35:00.771Z,19.27
2019-05-26T04:37:29.573Z,16.87
2019-05-26T04:39:58.258Z,16.90
2019-05-26T04:42:26.964Z,17.30
2019-05-26T04:44:55.657Z,16.83
2019-05-26T04:47:24.371Z,16.03
2019-05-26T04:49:53.052Z,15.17
2019-05-26T04:52:21.750Z,15.17
2019-05-26T04:54:50.453Z,15.13
2019-05-26T04:57:19.220Z,14.40
2019-05-26T04:59:47.967Z,14.33
2019-05-26T05:02:16.671Z,13.27
2019-05-26T05:04:45.327Z,13.23
2019-05-26T05:07:13.956Z,12.97
2019-05-26T05:09:42.569Z,13.40
2019-05-26T05:12:11.268Z,12.83
2019-05-26T05:14:39.924Z,13.40
2019-05-26T05:17:08.683Z,12.83
2019-05-26T05:19:37.317Z,13.03
2019-05-26T05:22:06.103Z,12.97
2019-05-26T05:24:34.732Z,12.07
2019-05-26T05:27:03.474Z,12.77
2019-05-26T05:29:32.155Z,13.13
2019-05-26T05:32:00.768Z,12.33
2019-05-26T05:34:29.489Z,13.37
2019-05-26T05:36:58.171Z,12.60
2019-05-26T05:39:26.914Z,12.80
2019-05-26T05:41:55.690Z,11.77
2019-05-26T05:44:24.406Z,10.90
2019-05-26T05:46:53.120Z,11.47
2019-05-26T05:49:21.800Z,10.80
2019-05-26T05:51:50.585Z,10.97
2019-05-26T05:54:19.197Z,10.60
2019-05-26T05:56:47.835Z,11.20
2019-05-26T05:59:16.551Z,10.80
2019-05-26T06:01:45.184Z,11.00
2019-05-26T06:04:13.928Z,10.40
2019-05-26T06:06:42.556Z,10.30
2019-05-26T06:09:11.185Z,10.53
2019-05-26T06:11:39.867Z,10.37
2019-05-26T06:14:08.585Z,10.73
2019-05-26T06:16:37.272Z,10.63
2019-05-26T06:19:05.888Z,10.00
2019-05-26T06:21:34.678Z,10.20
2019-05-26T06:24:03.358Z,9.73
2019-05-26T06:26:32.016Z,10.00
2019-05-26T06:29:00.707Z,9.97
2019-05-26T06:31:29.446Z,11.00
2019-05-26T06:33:58.123Z,10.20
2019-05-26T06:36:26.816Z,9.83
2019-05-26T06:38:55.588Z,10.60
2019-05-26T06:41:33.582Z,9.90
2019-05-26T06:43:54.702Z,10.30
2019-05-26T06:46:23.366Z,9.77
2019-05-26T06:48:52.017Z,9.10
2019-05-26T06:51:20.731Z,10.30
2019-05-26T06:53:49.358Z,9.73
2019-05-26T06:56:18.050Z,9.50
2019-05-26T06:58:46.745Z,9.30
2019-05-26T07:01:15.351Z,9.50
2019-05-26T07:03:44.000Z,10.93
2019-05-26T07:06:12.693Z,10.73
2019-05-26T07:08:41.459Z,11.40
2019-05-26T07:11:12.216Z,10.57
2019-05-26T07:13:40.703Z,10.70
2019-05-26T07:16:09.432Z,10.87
2019-05-26T07:18:38.115Z,10.20
2019-05-26T07:21:06.952Z,10.20
2019-05-26T07:23:35.583Z,10.87
2019-05-26T07:26:04.219Z,10.63
2019-05-26T07:28:32.831Z,10.83
2019-05-26T07:31:01.468Z,10.40
2019-05-26T07:33:30.102Z,9.60
2019-05-26T07:35:58.851Z,9.50
2019-05-26T07:38:27.538Z,10.37
2019-05-26T07:40:56.142Z,9.97
2019-05-26T07:43:27.959Z,9.70
2019-05-26T07:45:55.091Z,9.47
2019-05-26T07:48:25.730Z,9.40
2019-05-26T07:50:54.412Z,9.00
2019-05-26T07:53:23.030Z,7.97
2019-05-26T07:55:51.661Z,9.03
2019-05-26T07:58:20.378Z,9.33
2019-05-26T08:00:49.089Z,8.90
2019-05-26T08:03:17.772Z,8.50
2019-05-26T08:05:46.493Z,8.23
2019-05-26T08:08:15.096Z,8.20
2019-05-26T08:10:43.775Z,7.53
2019-05-26T08:13:12.413Z,7.70
2019-05-26T08:15:41.024Z,7.93
2019-05-26T08:18:09.750Z,7.50
2019-05-26T08:20:40.074Z,7.00
2019-05-26T08:23:08.716Z,7.73
2019-05-26T08:25:37.417Z,7.23
2019-05-26T08:28:06.115Z,8.00
2019-05-26T08:30:34.894Z,6.60
2019-05-26T08:33:03.629Z,6.73
2019-05-26T08:35:32.367Z,7.10
2019-05-26T08:38:00.993Z,6.90
2019-05-26T08:40:29.664Z,7.67
2019-05-26T08:42:58.347Z,7.00
2019-05-26T08:45:27.052Z,6.97
2019-05-26T08:47:55.731Z,7.00
2019-05-26T08:50:24.543Z,6.90
2019-05-26T08:52:53.215Z,7.13
2019-05-26T08:55:23.512Z,7.57
2019-05-26T08:57:52.141Z,7.80
2019-05-26T09:00:21.350Z,6.40
2019-05-26T09:02:50.019Z,6.60
2019-05-26T09:05:18.837Z,7.03
2019-05-26T09:07:47.572Z,6.80
2019-05-26T09:10:16.546Z,7.37
2019-05-26T09:12:59.636Z,6.70
2019-05-26T09:15:16.959Z,6.93
2019-05-26T09:17:45.570Z,6.37
2019-05-26T09:20:14.729Z,6.23
2019-05-26T09:22:43.462Z,6.47
2019-05-26T09:25:12.353Z,5.87
2019-05-26T09:27:41.069Z,5.80
2019-05-26T09:30:09.896Z,6.43
2019-05-26T09:32:38.560Z,6.30
2019-05-26T09:35:07.964Z,6.70
2019-05-26T09:37:36.630Z,6.80
2019-05-26T09:40:07.581Z,7.37
2019-05-26T09:42:36.263Z,7.37
2019-05-26T09:45:06.924Z,6.90
2019-05-26T09:47:35.541Z,6.20
2019-05-26T09:50:05.438Z,6.57
2019-05-26T09:52:34.022Z,6.77
2019-05-26T09:55:02.662Z,7.70
2019-05-26T09:57:31.274Z,8.20
2019-05-26T09:59:59.987Z,7.80
2019-05-26T10:02:28.723Z,7.23
2019-05-26T10:04:57.443Z,6.80
2019-05-26T10:07:26.211Z,7.00
2019-05-26T10:09:54.927Z,6.70
2019-05-26T10:12:23.626Z,6.60
2019-05-26T10:14:52.288Z,6.30
2019-05-26T10:17:23.134Z,7.97
2019-05-26T10:19:51.415Z,7.70
2019-05-26T10:22:20.160Z,8.40
2019-05-26T10:24:48.778Z,7.10
2019-05-26T10:27:17.461Z,6.50
2019-05-26T10:29:46.155Z,5.90
2019-05-26T10:32:15.008Z,6.77
2019-05-26T10:34:43.707Z,6.40
2019-05-26T10:37:12.302Z,6.07
2019-05-26T10:39:44.902Z,6.67
2019-05-26T10:42:11.928Z,6.40
2019-05-26T10:44:40.625Z,7.10
2019-05-26T10:47:09.314Z,7.50
2019-05-26T10:49:38.393Z,6.90
2019-05-26T10:52:07.379Z,6.17
2019-05-26T10:54:37.289Z,6.43
2019-05-26T10:57:06.057Z,7.97
2019-05-26T10:59:34.819Z,8.23
2019-05-26T11:02:03.589Z,6.50
2019-05-26T11:04:32.190Z,6.97
2019-05-26T11:07:00.828Z,7.20
2019-05-26T11:09:29.473Z,6.57
2019-05-26T11:11:58.160Z,6.67
2019-05-26T11:14:26.982Z,6.60
2019-05-26T11:16:55.571Z,7.23
2019-05-26T11:19:24.268Z,8.17
2019-05-26T11:21:53.070Z,6.80
2019-05-26T11:24:21.821Z,6.80
2019-05-26T11:26:50.540Z,6.53
2019-05-26T11:29:19.259Z,7.70
2019-05-26T11:31:48.017Z,7.00
2019-05-26T11:34:16.771Z,6.13
2019-05-26T11:36:45.509Z,6.43
2019-05-26T11:39:14.139Z,6.30
2019-05-26T11:41:42.758Z,6.50
2019-05-26T11:44:17.812Z,7.20
2019-05-26T11:46:41.868Z,6.80
2019-05-26T11:49:10.551Z,6.50
2019-05-26T11:51:39.229Z,6.43
2019-05-26T11:54:07.939Z,6.80
2019-05-26T11:56:36.557Z,6.80
2019-05-26T11:59:05.355Z,6.00
2019-05-26T12:01:33.995Z,6.53
2019-05-26T12:04:02.739Z,6.30
2019-05-26T12:06:31.353Z,6.00
2019-05-26T12:09:00.160Z,5.70
2019-05-26T12:11:28.834Z,5.80
2019-05-26T12:13:57.509Z,6.40
2019-05-26T12:16:28.880Z,6.05
2019-05-26T12:18:56.573Z,5.92
2019-05-26T12:21:25.260Z,5.65
2019-05-26T12:23:55.091Z,5.45
2019-05-26T12:26:23.924Z,5.35
2019-05-26T12:28:52.616Z,5.30
2019-05-26T12:31:21.289Z,5.30
2019-05-26T12:33:49.997Z,5.28
2019-05-26T12:36:18.596Z,5.25
2019-05-26T12:38:53.391Z,5.33
2019-05-26T12:41:22.184Z,5.15
2019-05-26T12:43:50.932Z,4.87
2019-05-26T12:46:19.622Z,5.05
2019-05-26T12:48:48.335Z,5.25
2019-05-26T12:51:17.164Z,4.78
2019-05-26T12:53:45.811Z,5.08
2019-05-26T12:56:14.533Z,4.83
2019-05-26T12:58:43.267Z,4.72
2019-05-26T13:01:11.909Z,4.45
2019-05-26T13:03:40.576Z,4.85
2019-05-26T13:06:09.300Z,5.03
2019-05-26T13:08:38.079Z,4.78
2019-05-26T13:11:06.859Z,4.33
2019-05-26T13:13:35.531Z,4.47
2019-05-26T13:16:04.130Z,4.35
2019-05-26T13:18:32.914Z,4.22
2019-05-26T13:21:01.600Z,4.50
2019-05-26T13:23:30.325Z,4.70
2019-05-26T13:25:59.031Z,4.65
2019-05-26T13:28:27.799Z,4.87
2019-05-26T13:30:57.107Z,4.80
2019-05-26T13:33:25.721Z,4.15
2019-05-26T13:35:54.478Z,4.72
2019-05-26T13:38:23.102Z,4.83
2019-05-26T13:40:51.825Z,4.67
2019-05-26T13:43:20.536Z,4.80
2019-05-26T13:45:49.167Z,4.92
2019-05-26T13:48:17.957Z,4.55
2019-05-26T13:50:46.631Z,4.55
2019-05-26T13:53:15.311Z,4.90
2019-05-26T13:55:44.050Z,5.62
2019-05-26T13:58:12.659Z,5.62
2019-05-26T14:00:41.373Z,5.10
2019-05-26T14:03:10.112Z,5.00
2019-05-26T14:05:38.879Z,5.28
2019-05-26T14:08:07.567Z,5.03
2019-05-26T14:10:37.263Z,5.55
2019-05-26T14:13:07.194Z,5.35
2019-05-26T14:15:38.716Z,5.70
2019-05-26T14:18:07.533Z,5.05
2019-05-26T14:20:41.636Z,5.62
2019-05-26T14:23:11.088Z,5.70
2019-05-26T14:25:39.828Z,5.40
2019-05-26T14:28:08.647Z,5.20
2019-05-26T14:30:37.262Z,5.85
2019-05-26T14:33:06.162Z,5.10
2019-05-26T14:35:34.770Z,5.17
2019-05-26T14:38:03.495Z,5.35
2019-05-26T14:40:32.123Z,5.25
2019-05-26T14:43:00.915Z,5.05
2019-05-26T14:45:29.664Z,6.33
2019-05-26T14:47:58.411Z,5.50
2019-05-26T14:50:27.590Z,5.10
2019-05-26T14:52:56.357Z,4.62
2019-05-26T14:55:25.070Z,4.55
2019-05-26T14:57:53.709Z,5.00
2019-05-26T15:00:22.892Z,5.15
2019-05-26T15:02:51.619Z,4.97
2019-05-26T15:05:20.350Z,4.70
2019-05-26T15:07:49.043Z,5.10
2019-05-26T15:10:17.850Z,4.78
2019-05-26T15:12:46.597Z,4.55
2019-05-26T15:15:15.791Z,5.20
2019-05-26T15:17:44.391Z,4.55
2019-05-26T15:20:14.858Z,4.87
2019-05-26T15:22:43.527Z,4.70
2019-05-26T15:25:12.436Z,4.47
2019-05-26T15:27:41.107Z,4.95
2019-05-26T15:30:11.090Z,5.00
2019-05-26T15:32:39.833Z,4.60
2019-05-26T15:35:10.992Z,4.80
2019-05-26T15:37:39.688Z,6.10
2019-05-26T15:40:08.751Z,5.00
2019-05-26T15:42:37.472Z,4.40
2019-05-26T15:45:07.784Z,4.73
2019-05-26T15:47:36.774Z,4.97
2019-05-26T15:50:07.802Z,4.70
2019-05-26T15:52:36.451Z,5.20
2019-05-26T15:55:05.613Z,4.77
2019-05-26T15:57:34.223Z,6.90
2019-05-26T16:00:03.374Z,5.00
2019-05-26T16:02:32.140Z,5.30
2019-05-26T16:05:00.875Z,4.50
2019-05-26T16:07:29.688Z,4.70
2019-05-26T16:09:58.434Z,5.20
2019-05-26T16:12:27.213Z,4.90
2019-05-26T16:14:55.897Z,4.73
2019-05-26T16:17:24.621Z,4.57
2019-05-26T16:19:53.291Z,4.60
2019-05-26T16:22:21.897Z,4.67
2019-05-26T16:24:50.598Z,4.87
2019-05-26T16:27:19.878Z,4.67
2019-05-26T16:29:48.898Z,5.07
2019-05-26T16:32:18.886Z,5.03
2019-05-26T16:34:47.986Z,4.87
2019-05-26T16:37:16.715Z,5.07
2019-05-26T16:39:45.436Z,4.63
2019-05-26T16:42:14.175Z,5.00
2019-05-26T16:44:42.814Z,5.00
2019-05-26T16:47:11.447Z,5.17
2019-05-26T16:49:40.135Z,4.83
2019-05-26T16:52:08.844Z,4.60
2019-05-26T16:54:37.616Z,5.00
2019-05-26T16:57:06.289Z,5.03
2019-05-26T16:59:34.986Z,5.00
2019-05-26T17:02:03.649Z,4.97
2019-05-26T17:04:32.418Z,4.93
2019-05-26T17:07:01.177Z,4.60
2019-05-26T17:09:29.859Z,4.70
2019-05-26T17:11:58.575Z,4.73
2019-05-26T17:14:27.327Z,5.00
2019-05-26T17:17:11.584Z,5.23
2019-05-26T17:19:26.311Z,5.37
2019-05-26T17:21:54.908Z,5.00
2019-05-26T17:24:23.573Z,5.37
2019-05-26T17:26:52.244Z,5.80
2019-05-26T17:29:20.846Z,5.13
2019-05-26T17:31:49.658Z,5.27
2019-05-26T17:34:18.292Z,5.00
2019-05-26T17:36:47.068Z,4.70
2019-05-26T17:39:15.778Z,5.10
2019-05-26T17:41:44.392Z,5.07
2019-05-26T17:44:13.085Z,5.30
2019-05-26T17:46:41.679Z,5.23
2019-05-26T17:49:10.394Z,5.23
2019-05-26T17:51:39.044Z,4.80
2019-05-26T17:54:07.763Z,4.90
2019-05-26T17:56:36.459Z,5.03
2019-05-26T17:59:05.162Z,5.07
2019-05-26T18:01:33.879Z,5.33
2019-05-26T18:04:02.638Z,5.40
2019-05-26T18:06:31.250Z,5.33
2019-05-26T18:08:59.989Z,5.30
2019-05-26T18:11:28.687Z,5.07
2019-05-26T18:13:57.308Z,5.10
2019-05-26T18:16:26.107Z,5.60
2019-05-26T18:18:54.853Z,5.43
2019-05-26T18:21:23.491Z,5.80
2019-05-26T18:23:52.181Z,6.10
2019-05-26T18:26:20.943Z,6.13
2019-05-26T18:28:49.644Z,6.07
2019-05-26T18:31:18.364Z,5.87
2019-05-26T18:33:47.114Z,5.57
2019-05-26T18:36:15.814Z,6.30
2019-05-26T18:38:44.438Z,6.40
2019-05-26T18:41:13.158Z,6.13
2019-05-26T18:43:41.842Z,6.40
2019-05-26T18:46:10.547Z,6.37
2019-05-26T18:48:39.224Z,6.57
2019-05-26T18:51:07.934Z,6.80
2019-05-26T18:53:36.729Z,6.60
2019-05-26T18:56:05.403Z,6.47
2019-05-26T18:58:34.193Z,6.47
2019-05-26T19:01:02.973Z,6.40
2019-05-26T19:03:31.650Z,6.83
2019-05-26T19:06:00.423Z,6.60
2019-05-26T19:08:29.063Z,7.23
2019-05-26T19:11:00.484Z,7.30
2019-05-26T19:13:29.688Z,7.17
2019-05-26T19:15:58.448Z,7.30
2019-05-26T19:18:27.136Z,7.40
2019-05-26T19:20:55.757Z,7.70
2019-05-26T19:23:24.544Z,7.77
2019-05-26T19:25:53.327Z,7.40
2019-05-26T19:28:22.064Z,7.73
2019-05-26T19:30:50.748Z,7.77
2019-05-26T19:33:19.468Z,7.73
2019-05-26T19:35:48.196Z,7.60
2019-05-26T19:38:16.877Z,8.20
2019-05-26T19:40:45.678Z,7.90
2019-05-26T19:43:14.403Z,8.20
2019-05-26T19:45:43.127Z,8.33
2019-05-26T19:48:11.796Z,8.40
2019-05-26T19:50:40.517Z,9.60
2019-05-26T19:53:09.293Z,9.60
2019-05-26T19:55:38.052Z,8.90
2019-05-26T19:58:06.856Z,9.07
2019-05-26T20:00:35.538Z,10.33
2019-05-26T20:03:04.370Z,12.07
2019-05-26T20:05:33.063Z,13.93
2019-05-26T20:08:01.830Z,11.73
2019-05-26T20:10:30.612Z,15.77
2019-05-26T20:12:59.389Z,11.90
2019-05-26T20:15:28.062Z,14.73
2019-05-26T20:17:56.772Z,10.97
2019-05-26T20:20:25.546Z,13.33
2019-05-26T20:22:54.279Z,12.40
2019-05-26T20:25:22.976Z,12.33
2019-05-26T20:27:51.611Z,11.83
2019-05-26T20:30:21.697Z,12.63
2019-05-26T20:32:50.772Z,11.43
2019-05-26T20:35:19.458Z,12.47
2019-05-26T20:37:48.152Z,13.27
2019-05-26T20:40:17.685Z,12.77
2019-05-26T20:42:46.439Z,12.50
2019-05-26T20:45:16.960Z,13.37
2019-05-26T20:47:45.640Z,12.80
2019-05-26T20:50:28.121Z,13.70
2019-05-26T20:52:45.559Z,14.03
2019-05-26T20:55:14.636Z,13.37
2019-05-26T20:57:43.278Z,14.13
2019-05-26T21:00:14.900Z,14.03
2019-05-26T21:02:43.919Z,14.00
2019-05-26T21:05:14.331Z,13.90
2019-05-26T21:07:43.027Z,13.70
2019-05-26T21:10:12.135Z,13.77
2019-05-26T21:12:40.775Z,15.20
2019-05-26T21:15:10.016Z,15.40
2019-05-26T21:17:38.690Z,15.77
2019-05-26T21:20:08.932Z,16.40
2019-05-26T21:22:37.572Z,16.23
2019-05-26T21:25:06.612Z,15.80
2019-05-26T21:27:35.432Z,14.87
2019-05-26T21:30:06.742Z,15.83
2019-05-26T21:32:35.396Z,15.53
2019-05-26T21:35:05.812Z,14.57
2019-05-26T21:37:34.427Z,15.30
2019-05-26T21:40:03.518Z,15.93
2019-05-26T21:42:32.227Z,15.47
2019-05-26T21:45:00.993Z,15.43
2019-05-26T21:47:29.700Z,16.20
2019-05-26T21:49:58.338Z,16.27
2019-05-26T21:52:26.969Z,16.10
2019-05-26T21:54:55.582Z,16.13
2019-05-26T21:57:24.308Z,16.70
2019-05-26T21:59:53.057Z,16.43
2019-05-26T22:02:21.744Z,13.97
2019-05-26T22:04:50.484Z,16.30
2019-05-26T22:07:19.241Z,15.13
2019-05-26T22:09:47.972Z,14.83
2019-05-26T22:12:16.718Z,16.50
2019-05-26T22:14:45.506Z,16.43
2019-05-26T22:17:14.243Z,16.20
2019-05-26T22:19:42.924Z,16.10
2019-05-26T22:22:11.565Z,15.93
2019-05-26T22:24:40.367Z,15.97
2019-05-26T22:27:09.131Z,17.80
2019-05-26T22:29:37.811Z,17.60
2019-05-26T22:32:06.439Z,16.93
2019-05-26T22:34:35.148Z,18.10
2019-05-26T22:37:03.778Z,17.23
2019-05-26T22:39:32.567Z,18.63
2019-05-26T22:42:01.361Z,17.80
2019-05-26T22:44:30.082Z,17.70
2019-05-26T22:46:58.871Z,17.37
2019-05-26T22:49:27.542Z,16.93
2019-05-26T22:51:56.206Z,17.00
2019-05-26T22:54:24.873Z,17.33
2019-05-26T22:56:53.559Z,17.67
2019-05-26T22:59:22.267Z,17.50
2019-05-26T23:01:51.273Z,17.23
2019-05-26T23:04:20.349Z,16.73
2019-05-26T23:06:49.072Z,16.13
2019-05-26T23:09:17.796Z,17.20
2019-05-26T23:11:46.472Z,16.47
2019-05-26T23:14:15.259Z,16.60
2019-05-26T23:16:44.005Z,15.90
2019-05-26T23:19:19.418Z,17.17
2019-05-26T23:21:43.114Z,16.47
2019-05-26T23:24:11.731Z,16.53
2019-05-26T23:26:40.380Z,16.30
2019-05-26T23:29:09.506Z,17.23
2019-05-26T23:31:38.142Z,16.20
2019-05-26T23:34:06.821Z,16.67
2019-05-26T23:36:35.574Z,18.10
2019-05-26T23:39:06.209Z,16.27
2019-05-26T23:41:34.971Z,16.67
2019-05-26T23:44:03.586Z,17.30
2019-05-26T23:46:32.233Z,16.97
2019-05-26T23:49:00.964Z,16.40
2019-05-26T23:51:29.669Z,14.97
2019-05-26T23:53:58.372Z,16.00
2019-05-26T23:56:27.131Z,16.40
2019-05-26T23:58:55.834Z,15.90
